Terminal Aerodrome Forecast
Issued by NWS Bismarck, ND

Home | Current Version | Previous Version | Text Only | Print | Product List | Glossary Off
Versions: 1 2 3 4 5 6 7 8 9 10 11 12 13 14 15

000
FTUS43 KBIS 200520
TAFBIS
TAF
KBIS 200520Z 2006/2106 29010KT P6SM FEW045 OVC060
     FM200900 27008KT P6SM FEW060 SCT200
     FM201600 24011KT P6SM FEW060 FEW250
     FM202200 21015KT P6SM FEW100 FEW250
     FM210400 16009KT P6SM FEW140 SCT200 WS015/20030KT=

USA.gov is the U.S. government's official web portal to all federal, state and local government web resources and services.